sensor_id;sensor_type;location;lat;lon;timestamp;P1;durP1;ratioP1;P2;durP2;ratioP2
64936;SDS011;51452;47.698;19.050;2023-07-20T00:01:20;7.90;;;2.80;;
64936;SDS011;51452;47.698;19.050;2023-07-20T00:03:46;6.53;;;2.58;;
64936;SDS011;51452;47.698;19.050;2023-07-20T00:06:19;6.50;;;2.75;;
64936;SDS011;51452;47.698;19.050;2023-07-20T00:08:45;6.07;;;2.70;;
64936;SDS011;51452;47.698;19.050;2023-07-20T00:11:10;5.22;;;2.42;;
64936;SDS011;51452;47.698;19.050;2023-07-20T00:13:35;6.28;;;2.50;;
64936;SDS011;51452;47.698;19.050;2023-07-20T00:16:01;8.50;;;2.38;;
64936;SDS011;51452;47.698;19.050;2023-07-20T00:18:26;6.55;;;2.55;;
64936;SDS011;51452;47.698;19.050;2023-07-20T00:20:51;4.78;;;2.22;;
64936;SDS011;51452;47.698;19.050;2023-07-20T00:23:17;7.95;;;2.70;;
64936;SDS011;51452;47.698;19.050;2023-07-20T00:25:42;5.93;;;2.15;;
64936;SDS011;51452;47.698;19.050;2023-07-20T00:28:07;10.20;;;2.58;;
64936;SDS011;51452;47.698;19.050;2023-07-20T00:30:33;15.30;;;3.63;;
64936;SDS011;51452;47.698;19.050;2023-07-20T00:32:58;7.57;;;2.53;;
64936;SDS011;51452;47.698;19.050;2023-07-20T00:35:24;5.22;;;2.25;;
64936;SDS011;51452;47.698;19.050;2023-07-20T00:37:49;5.88;;;2.50;;
64936;SDS011;51452;47.698;19.050;2023-07-20T00:40:15;8.48;;;2.58;;
64936;SDS011;51452;47.698;19.050;2023-07-20T00:42:42;6.45;;;2.50;;
64936;SDS011;51452;47.698;19.050;2023-07-20T00:45:08;5.15;;;2.28;;
64936;SDS011;51452;47.698;19.050;2023-07-20T00:47:33;7.13;;;2.58;;
64936;SDS011;51452;47.698;19.050;2023-07-20T00:49:59;5.93;;;2.50;;
64936;SDS011;51452;47.698;19.050;2023-07-20T00:52:24;7.65;;;3.15;;
64936;SDS011;51452;47.698;19.050;2023-07-20T00:54:52;5.45;;;2.40;;
64936;SDS011;51452;47.698;19.050;2023-07-20T00:57:18;9.57;;;3.03;;
64936;SDS011;51452;47.698;19.050;2023-07-20T00:59:44;10.90;;;2.50;;
64936;SDS011;51452;47.698;19.050;2023-07-20T01:02:10;7.18;;;2.72;;
64936;SDS011;51452;47.698;19.050;2023-07-20T01:04:35;6.30;;;2.55;;
64936;SDS011;51452;47.698;19.050;2023-07-20T01:09:43;5.13;;;2.53;;
64936;SDS011;51452;47.698;19.050;2023-07-20T01:12:12;6.68;;;2.83;;
64936;SDS011;51452;47.698;19.050;2023-07-20T01:14:43;5.68;;;2.30;;
64936;SDS011;51452;47.698;19.050;2023-07-20T01:17:10;6.35;;;2.88;;
64936;SDS011;51452;47.698;19.050;2023-07-20T01:19:35;3.97;;;2.25;;
64936;SDS011;51452;47.698;19.050;2023-07-20T01:25:06;7.78;;;2.60;;
64936;SDS011;51452;47.698;19.050;2023-07-20T01:32:59;6.22;;;2.88;;
64936;SDS011;51452;47.698;19.050;2023-07-20T01:35:27;5.53;;;2.63;;
64936;SDS011;51452;47.698;19.050;2023-07-20T01:37:54;11.77;;;4.05;;
64936;SDS011;51452;47.698;19.050;2023-07-20T01:40:22;6.35;;;2.10;;
64936;SDS011;51452;47.698;19.050;2023-07-20T01:42:50;10.75;;;2.92;;
64936;SDS011;51452;47.698;19.050;2023-07-20T01:45:17;4.60;;;2.25;;
64936;SDS011;51452;47.698;19.050;2023-07-20T01:47:42;3.58;;;1.90;;
64936;SDS011;51452;47.698;19.050;2023-07-20T01:50:08;7.05;;;2.17;;
64936;SDS011;51452;47.698;19.050;2023-07-20T01:52:34;6.22;;;2.75;;
64936;SDS011;51452;47.698;19.050;2023-07-20T01:54:59;5.18;;;2.83;;
64936;SDS011;51452;47.698;19.050;2023-07-20T01:57:25;15.73;;;4.15;;
64936;SDS011;51452;47.698;19.050;2023-07-20T01:59:50;12.07;;;4.05;;
64936;SDS011;51452;47.698;19.050;2023-07-20T02:02:15;14.80;;;4.20;;
64936;SDS011;51452;47.698;19.050;2023-07-20T02:04:41;14.35;;;3.60;;
64936;SDS011;51452;47.698;19.050;2023-07-20T02:07:07;9.30;;;3.05;;
64936;SDS011;51452;47.698;19.050;2023-07-20T02:09:32;8.38;;;2.83;;
64936;SDS011;51452;47.698;19.050;2023-07-20T02:11:57;6.65;;;2.63;;
64936;SDS011;51452;47.698;19.050;2023-07-20T02:14:23;5.65;;;2.55;;
64936;SDS011;51452;47.698;19.050;2023-07-20T02:16:48;10.15;;;2.70;;
64936;SDS011;51452;47.698;19.050;2023-07-20T02:19:17;7.60;;;2.83;;
64936;SDS011;51452;47.698;19.050;2023-07-20T02:21:43;5.72;;;2.00;;
64936;SDS011;51452;47.698;19.050;2023-07-20T02:24:08;7.45;;;2.95;;
64936;SDS011;51452;47.698;19.050;2023-07-20T02:26:34;8.63;;;2.72;;
64936;SDS011;51452;47.698;19.050;2023-07-20T02:28:59;6.97;;;2.63;;
64936;SDS011;51452;47.698;19.050;2023-07-20T02:31:25;6.30;;;2.50;;
64936;SDS011;51452;47.698;19.050;2023-07-20T02:33:50;5.55;;;2.40;;
64936;SDS011;51452;47.698;19.050;2023-07-20T02:36:15;7.57;;;2.70;;
64936;SDS011;51452;47.698;19.050;2023-07-20T02:38:42;7.70;;;2.05;;
64936;SDS011;51452;47.698;19.050;2023-07-20T02:41:07;6.47;;;2.30;;
64936;SDS011;51452;47.698;19.050;2023-07-20T02:43:33;6.18;;;2.30;;
64936;SDS011;51452;47.698;19.050;2023-07-20T02:45:58;5.63;;;2.60;;
64936;SDS011;51452;47.698;19.050;2023-07-20T02:48:23;6.50;;;2.90;;
64936;SDS011;51452;47.698;19.050;2023-07-20T02:50:49;6.45;;;2.75;;
64936;SDS011;51452;47.698;19.050;2023-07-20T02:53:14;6.85;;;2.25;;
64936;SDS011;51452;47.698;19.050;2023-07-20T02:55:40;9.85;;;2.97;;
64936;SDS011;51452;47.698;19.050;2023-07-20T02:58:05;14.93;;;2.70;;
64936;SDS011;51452;47.698;19.050;2023-07-20T03:00:30;4.75;;;2.45;;
64936;SDS011;51452;47.698;19.050;2023-07-20T03:02:56;25.27;;;5.22;;
64936;SDS011;51452;47.698;19.050;2023-07-20T03:05:22;23.00;;;4.10;;
64936;SDS011;51452;47.698;19.050;2023-07-20T03:07:50;21.35;;;4.43;;
64936;SDS011;51452;47.698;19.050;2023-07-20T03:10:15;19.55;;;3.80;;
64936;SDS011;51452;47.698;19.050;2023-07-20T03:12:41;12.50;;;3.05;;
64936;SDS011;51452;47.698;19.050;2023-07-20T03:15:06;5.82;;;2.90;;
64936;SDS011;51452;47.698;19.050;2023-07-20T03:17:32;6.50;;;2.55;;
64936;SDS011;51452;47.698;19.050;2023-07-20T03:19:58;6.38;;;2.53;;
64936;SDS011;51452;47.698;19.050;2023-07-20T03:22:24;7.50;;;2.42;;
64936;SDS011;51452;47.698;19.050;2023-07-20T03:24:50;5.00;;;2.40;;
64936;SDS011;51452;47.698;19.050;2023-07-20T03:27:16;6.75;;;2.75;;
64936;SDS011;51452;47.698;19.050;2023-07-20T03:29:42;7.63;;;2.70;;
64936;SDS011;51452;47.698;19.050;2023-07-20T03:32:07;6.38;;;2.88;;
64936;SDS011;51452;47.698;19.050;2023-07-20T03:34:33;5.82;;;2.72;;
64936;SDS011;51452;47.698;19.050;2023-07-20T03:36:58;7.70;;;2.35;;
64936;SDS011;51452;47.698;19.050;2023-07-20T03:39:24;6.53;;;2.88;;
64936;SDS011;51452;47.698;19.050;2023-07-20T03:41:49;12.35;;;2.80;;
64936;SDS011;51452;47.698;19.050;2023-07-20T03:44:15;4.55;;;2.50;;
64936;SDS011;51452;47.698;19.050;2023-07-20T03:46:40;11.00;;;2.78;;
64936;SDS011;51452;47.698;19.050;2023-07-20T03:49:06;6.03;;;2.78;;
64936;SDS011;51452;47.698;19.050;2023-07-20T03:51:31;9.75;;;2.85;;
64936;SDS011;51452;47.698;19.050;2023-07-20T03:53:57;6.78;;;2.40;;
64936;SDS011;51452;47.698;19.050;2023-07-20T03:56:23;5.68;;;2.80;;
64936;SDS011;51452;47.698;19.050;2023-07-20T03:58:51;7.78;;;2.75;;
64936;SDS011;51452;47.698;19.050;2023-07-20T04:01:16;6.65;;;2.85;;
64936;SDS011;51452;47.698;19.050;2023-07-20T04:03:42;6.90;;;3.00;;
64936;SDS011;51452;47.698;19.050;2023-07-20T04:06:08;6.05;;;2.95;;
64936;SDS011;51452;47.698;19.050;2023-07-20T04:08:33;8.90;;;2.92;;
64936;SDS011;51452;47.698;19.050;2023-07-20T04:11:00;6.28;;;2.83;;
64936;SDS011;51452;47.698;19.050;2023-07-20T04:13:28;8.57;;;3.00;;
64936;SDS011;51452;47.698;19.050;2023-07-20T04:15:58;7.53;;;2.85;;
64936;SDS011;51452;47.698;19.050;2023-07-20T04:18:23;7.30;;;2.75;;
64936;SDS011;51452;47.698;19.050;2023-07-20T04:20:49;8.63;;;3.47;;
64936;SDS011;51452;47.698;19.050;2023-07-20T04:23:14;5.95;;;2.80;;
64936;SDS011;51452;47.698;19.050;2023-07-20T04:25:40;7.30;;;3.00;;
64936;SDS011;51452;47.698;19.050;2023-07-20T04:28:06;5.75;;;2.60;;
64936;SDS011;51452;47.698;19.050;2023-07-20T04:30:35;6.25;;;3.00;;
64936;SDS011;51452;47.698;19.050;2023-07-20T04:33:01;6.32;;;3.05;;
64936;SDS011;51452;47.698;19.050;2023-07-20T04:38:15;4.38;;;2.80;;
64936;SDS011;51452;47.698;19.050;2023-07-20T04:40:43;6.38;;;3.92;;
64936;SDS011;51452;47.698;19.050;2023-07-20T04:43:12;4.93;;;2.95;;
64936;SDS011;51452;47.698;19.050;2023-07-20T04:45:41;4.75;;;3.05;;
64936;SDS011;51452;47.698;19.050;2023-07-20T04:48:08;6.85;;;2.92;;
64936;SDS011;51452;47.698;19.050;2023-07-20T04:50:40;4.53;;;2.72;;
64936;SDS011;51452;47.698;19.050;2023-07-20T04:53:05;4.78;;;2.83;;
64936;SDS011;51452;47.698;19.050;2023-07-20T04:55:34;4.78;;;2.75;;
64936;SDS011;51452;47.698;19.050;2023-07-20T04:58:00;4.00;;;2.38;;
64936;SDS011;51452;47.698;19.050;2023-07-20T05:00:26;6.63;;;2.53;;
64936;SDS011;51452;47.698;19.050;2023-07-20T05:02:51;5.53;;;2.92;;
64936;SDS011;51452;47.698;19.050;2023-07-20T05:05:16;5.55;;;2.78;;
64936;SDS011;51452;47.698;19.050;2023-07-20T05:07:42;6.72;;;3.05;;
64936;SDS011;51452;47.698;19.050;2023-07-20T05:10:07;6.45;;;3.10;;
64936;SDS011;51452;47.698;19.050;2023-07-20T05:12:33;6.10;;;2.60;;
64936;SDS011;51452;47.698;19.050;2023-07-20T05:14:58;6.13;;;3.15;;
64936;SDS011;51452;47.698;19.050;2023-07-20T05:17:24;4.53;;;2.80;;
64936;SDS011;51452;47.698;19.050;2023-07-20T05:19:50;5.55;;;2.53;;
64936;SDS011;51452;47.698;19.050;2023-07-20T05:22:16;6.10;;;2.83;;
64936;SDS011;51452;47.698;19.050;2023-07-20T05:24:42;8.23;;;3.13;;
64936;SDS011;51452;47.698;19.050;2023-07-20T05:27:08;6.43;;;2.90;;
64936;SDS011;51452;47.698;19.050;2023-07-20T05:29:33;5.75;;;3.00;;
64936;SDS011;51452;47.698;19.050;2023-07-20T05:31:58;4.72;;;2.88;;
64936;SDS011;51452;47.698;19.050;2023-07-20T05:34:24;5.55;;;2.80;;
64936;SDS011;51452;47.698;19.050;2023-07-20T05:36:49;6.88;;;2.95;;
64936;SDS011;51452;47.698;19.050;2023-07-20T05:39:16;4.10;;;2.85;;
64936;SDS011;51452;47.698;19.050;2023-07-20T05:41:42;5.50;;;2.95;;
64936;SDS011;51452;47.698;19.050;2023-07-20T05:44:08;6.50;;;3.25;;
64936;SDS011;51452;47.698;19.050;2023-07-20T05:46:33;4.93;;;2.60;;
64936;SDS011;51452;47.698;19.050;2023-07-20T05:48:58;5.15;;;3.15;;
64936;SDS011;51452;47.698;19.050;2023-07-20T05:51:24;6.90;;;2.90;;
64936;SDS011;51452;47.698;19.050;2023-07-20T05:53:49;5.18;;;3.03;;
64936;SDS011;51452;47.698;19.050;2023-07-20T05:56:14;5.45;;;3.20;;
64936;SDS011;51452;47.698;19.050;2023-07-20T05:58:40;4.53;;;2.70;;
64936;SDS011;51452;47.698;19.050;2023-07-20T06:01:05;5.32;;;3.10;;
64936;SDS011;51452;47.698;19.050;2023-07-20T06:03:31;5.13;;;3.10;;
64936;SDS011;51452;47.698;19.050;2023-07-20T06:06:01;12.30;;;4.57;;
64936;SDS011;51452;47.698;19.050;2023-07-20T06:08:28;6.13;;;2.75;;
64936;SDS011;51452;47.698;19.050;2023-07-20T06:10:53;6.35;;;3.13;;
64936;SDS011;51452;47.698;19.050;2023-07-20T06:13:19;4.22;;;2.90;;
64936;SDS011;51452;47.698;19.050;2023-07-20T06:15:44;8.23;;;3.33;;
64936;SDS011;51452;47.698;19.050;2023-07-20T06:18:10;5.35;;;2.97;;
64936;SDS011;51452;47.698;19.050;2023-07-20T06:20:35;5.55;;;2.85;;
64936;SDS011;51452;47.698;19.050;2023-07-20T06:23:00;5.35;;;2.80;;
64936;SDS011;51452;47.698;19.050;2023-07-20T06:25:26;4.82;;;3.08;;
64936;SDS011;51452;47.698;19.050;2023-07-20T06:27:51;4.70;;;2.88;;
64936;SDS011;51452;47.698;19.050;2023-07-20T06:30:17;7.43;;;2.85;;
64936;SDS011;51452;47.698;19.050;2023-07-20T06:32:43;4.10;;;2.72;;
64936;SDS011;51452;47.698;19.050;2023-07-20T06:35:08;7.43;;;3.08;;
64936;SDS011;51452;47.698;19.050;2023-07-20T06:37:34;5.32;;;2.80;;
64936;SDS011;51452;47.698;19.050;2023-07-20T06:40:00;13.90;;;3.60;;
64936;SDS011;51452;47.698;19.050;2023-07-20T06:42:26;5.15;;;2.92;;
64936;SDS011;51452;47.698;19.050;2023-07-20T06:44:51;4.53;;;3.03;;
64936;SDS011;51452;47.698;19.050;2023-07-20T06:47:17;5.93;;;2.90;;
64936;SDS011;51452;47.698;19.050;2023-07-20T06:49:42;7.82;;;3.15;;
64936;SDS011;51452;47.698;19.050;2023-07-20T06:52:08;10.00;;;3.38;;
64936;SDS011;51452;47.698;19.050;2023-07-20T06:54:33;4.25;;;2.67;;
64936;SDS011;51452;47.698;19.050;2023-07-20T06:56:58;5.63;;;2.83;;
64936;SDS011;51452;47.698;19.050;2023-07-20T06:59:24;4.30;;;2.72;;
64936;SDS011;51452;47.698;19.050;2023-07-20T07:01:50;6.45;;;2.97;;
64936;SDS011;51452;47.698;19.050;2023-07-20T07:04:15;5.03;;;2.70;;
64936;SDS011;51452;47.698;19.050;2023-07-20T07:06:41;6.70;;;3.00;;
64936;SDS011;51452;47.698;19.050;2023-07-20T07:09:06;4.60;;;2.55;;
64936;SDS011;51452;47.698;19.050;2023-07-20T07:11:33;5.03;;;2.60;;
64936;SDS011;51452;47.698;19.050;2023-07-20T07:13:58;6.18;;;2.50;;
64936;SDS011;51452;47.698;19.050;2023-07-20T07:16:24;5.78;;;2.60;;
64936;SDS011;51452;47.698;19.050;2023-07-20T07:18:50;6.95;;;2.47;;
64936;SDS011;51452;47.698;19.050;2023-07-20T07:21:16;5.70;;;2.40;;
64936;SDS011;51452;47.698;19.050;2023-07-20T07:23:42;5.55;;;3.20;;
64936;SDS011;51452;47.698;19.050;2023-07-20T07:26:08;4.00;;;2.80;;
64936;SDS011;51452;47.698;19.050;2023-07-20T07:28:37;6.03;;;2.60;;
64936;SDS011;51452;47.698;19.050;2023-07-20T07:31:05;22.60;;;3.40;;
64936;SDS011;51452;47.698;19.050;2023-07-20T07:33:31;7.15;;;2.63;;
64936;SDS011;51452;47.698;19.050;2023-07-20T07:35:57;7.20;;;2.90;;
64936;SDS011;51452;47.698;19.050;2023-07-20T07:38:22;3.97;;;2.58;;
64936;SDS011;51452;47.698;19.050;2023-07-20T07:40:48;4.05;;;2.65;;
64936;SDS011;51452;47.698;19.050;2023-07-20T07:43:13;6.53;;;3.10;;
64936;SDS011;51452;47.698;19.050;2023-07-20T07:45:39;8.13;;;3.08;;
64936;SDS011;51452;47.698;19.050;2023-07-20T07:48:05;5.15;;;2.40;;
64936;SDS011;51452;47.698;19.050;2023-07-20T07:50:31;4.70;;;2.83;;
64936;SDS011;51452;47.698;19.050;2023-07-20T07:52:57;5.18;;;2.53;;
64936;SDS011;51452;47.698;19.050;2023-07-20T07:55:24;4.80;;;2.80;;
64936;SDS011;51452;47.698;19.050;2023-07-20T07:57:49;6.65;;;3.00;;
64936;SDS011;51452;47.698;19.050;2023-07-20T08:00:15;4.75;;;2.80;;
64936;SDS011;51452;47.698;19.050;2023-07-20T08:02:43;7.43;;;2.85;;
64936;SDS011;51452;47.698;19.050;2023-07-20T08:05:10;5.78;;;2.88;;
64936;SDS011;51452;47.698;19.050;2023-07-20T08:07:38;4.53;;;2.65;;
64936;SDS011;51452;47.698;19.050;2023-07-20T08:10:04;8.57;;;3.00;;
64936;SDS011;51452;47.698;19.050;2023-07-20T08:12:30;14.40;;;2.85;;
64936;SDS011;51452;47.698;19.050;2023-07-20T08:14:56;3.50;;;2.30;;
64936;SDS011;51452;47.698;19.050;2023-07-20T08:17:21;5.15;;;2.63;;
64936;SDS011;51452;47.698;19.050;2023-07-20T08:19:46;4.53;;;2.28;;
64936;SDS011;51452;47.698;19.050;2023-07-20T08:22:12;4.55;;;2.03;;
64936;SDS011;51452;47.698;19.050;2023-07-20T08:24:43;4.32;;;2.42;;
64936;SDS011;51452;47.698;19.050;2023-07-20T08:27:09;3.97;;;2.30;;
64936;SDS011;51452;47.698;19.050;2023-07-20T08:29:35;5.13;;;2.15;;
64936;SDS011;51452;47.698;19.050;2023-07-20T08:32:02;7.85;;;2.88;;
64936;SDS011;51452;47.698;19.050;2023-07-20T08:34:29;4.63;;;2.45;;
64936;SDS011;51452;47.698;19.050;2023-07-20T08:36:54;4.95;;;2.40;;
64936;SDS011;51452;47.698;19.050;2023-07-20T08:39:21;4.50;;;2.30;;
64936;SDS011;51452;47.698;19.050;2023-07-20T08:41:47;4.97;;;2.30;;
64936;SDS011;51452;47.698;19.050;2023-07-20T08:44:14;4.97;;;2.30;;
64936;SDS011;51452;47.698;19.050;2023-07-20T08:46:40;3.40;;;2.08;;
64936;SDS011;51452;47.698;19.050;2023-07-20T08:49:06;3.17;;;2.17;;
64936;SDS011;51452;47.698;19.050;2023-07-20T08:51:32;4.38;;;2.10;;
64936;SDS011;51452;47.698;19.050;2023-07-20T08:53:58;4.95;;;2.22;;
64936;SDS011;51452;47.698;19.050;2023-07-20T08:56:25;5.20;;;2.10;;
64936;SDS011;51452;47.698;19.050;2023-07-20T08:58:53;4.03;;;2.00;;
64936;SDS011;51452;47.698;19.050;2023-07-20T09:01:22;2.88;;;1.83;;
64936;SDS011;51452;47.698;19.050;2023-07-20T09:03:47;3.83;;;2.13;;
64936;SDS011;51452;47.698;19.050;2023-07-20T09:06:14;4.57;;;2.00;;
64936;SDS011;51452;47.698;19.050;2023-07-20T09:08:40;3.67;;;2.10;;
64936;SDS011;51452;47.698;19.050;2023-07-20T09:11:07;7.63;;;2.28;;
64936;SDS011;51452;47.698;19.050;2023-07-20T09:13:33;3.85;;;2.22;;
64936;SDS011;51452;47.698;19.050;2023-07-20T09:15:59;3.42;;;2.15;;
64936;SDS011;51452;47.698;19.050;2023-07-20T09:18:28;6.15;;;2.28;;
64936;SDS011;51452;47.698;19.050;2023-07-20T09:20:58;5.88;;;2.17;;
64936;SDS011;51452;47.698;19.050;2023-07-20T09:23:35;5.10;;;2.13;;
64936;SDS011;51452;47.698;19.050;2023-07-20T09:26:12;4.22;;;2.15;;
64936;SDS011;51452;47.698;19.050;2023-07-20T09:28:42;4.72;;;2.47;;
64936;SDS011;51452;47.698;19.050;2023-07-20T09:31:20;5.22;;;1.90;;
64936;SDS011;51452;47.698;19.050;2023-07-20T09:33:47;3.55;;;2.22;;
64936;SDS011;51452;47.698;19.050;2023-07-20T09:36:13;6.05;;;2.30;;
64936;SDS011;51452;47.698;19.050;2023-07-20T09:38:42;14.65;;;2.58;;
64936;SDS011;51452;47.698;19.050;2023-07-20T09:41:14;12.30;;;2.40;;
64936;SDS011;51452;47.698;19.050;2023-07-20T09:43:40;3.03;;;1.95;;
64936;SDS011;51452;47.698;19.050;2023-07-20T09:46:06;7.20;;;2.20;;
64936;SDS011;51452;47.698;19.050;2023-07-20T09:48:32;4.30;;;2.10;;
64936;SDS011;51452;47.698;19.050;2023-07-20T09:50:57;4.32;;;2.17;;
64936;SDS011;51452;47.698;19.050;2023-07-20T09:53:24;7.90;;;2.50;;
64936;SDS011;51452;47.698;19.050;2023-07-20T09:55:51;8.55;;;1.88;;
64936;SDS011;51452;47.698;19.050;2023-07-20T09:58:18;4.80;;;2.55;;
64936;SDS011;51452;47.698;19.050;2023-07-20T10:00:44;4.82;;;2.13;;
64936;SDS011;51452;47.698;19.050;2023-07-20T10:03:13;4.82;;;2.05;;
64936;SDS011;51452;47.698;19.050;2023-07-20T10:05:43;3.28;;;2.13;;
64936;SDS011;51452;47.698;19.050;2023-07-20T10:08:21;3.50;;;2.25;;
64936;SDS011;51452;47.698;19.050;2023-07-20T10:10:50;3.15;;;1.90;;
64936;SDS011;51452;47.698;19.050;2023-07-20T10:13:29;3.17;;;1.85;;
64936;SDS011;51452;47.698;19.050;2023-07-20T10:18:29;3.33;;;1.85;;
64936;SDS011;51452;47.698;19.050;2023-07-20T10:20:59;5.47;;;1.80;;
64936;SDS011;51452;47.698;19.050;2023-07-20T10:23:26;2.90;;;1.88;;
64936;SDS011;51452;47.698;19.050;2023-07-20T10:25:54;3.85;;;1.90;;
64936;SDS011;51452;47.698;19.050;2023-07-20T10:28:20;4.45;;;1.70;;
64936;SDS011;51452;47.698;19.050;2023-07-20T10:30:48;4.85;;;1.70;;
64936;SDS011;51452;47.698;19.050;2023-07-20T10:33:14;3.97;;;1.70;;
64936;SDS011;51452;47.698;19.050;2023-07-20T10:38:17;4.90;;;1.95;;
64936;SDS011;51452;47.698;19.050;2023-07-20T10:40:43;5.18;;;1.90;;
64936;SDS011;51452;47.698;19.050;2023-07-20T10:43:19;3.30;;;1.55;;
64936;SDS011;51452;47.698;19.050;2023-07-20T10:45:49;4.28;;;1.83;;
64936;SDS011;51452;47.698;19.050;2023-07-20T10:48:23;2.60;;;1.77;;
64936;SDS011;51452;47.698;19.050;2023-07-20T10:53:41;4.75;;;2.10;;
64936;SDS011;51452;47.698;19.050;2023-07-20T10:56:08;2.97;;;1.45;;
64936;SDS011;51452;47.698;19.050;2023-07-20T10:58:36;13.93;;;2.08;;
64936;SDS011;51452;47.698;19.050;2023-07-20T11:01:02;3.58;;;1.50;;
64936;SDS011;51452;47.698;19.050;2023-07-20T11:03:32;5.82;;;1.92;;
64936;SDS011;51452;47.698;19.050;2023-07-20T11:05:59;5.63;;;1.60;;
64936;SDS011;51452;47.698;19.050;2023-07-20T11:08:44;7.50;;;1.60;;
64936;SDS011;51452;47.698;19.050;2023-07-20T11:11:23;8.07;;;1.70;;
64936;SDS011;51452;47.698;19.050;2023-07-20T11:14:24;4.63;;;1.80;;
64936;SDS011;51452;47.698;19.050;2023-07-20T11:16:50;4.28;;;1.80;;
64936;SDS011;51452;47.698;19.050;2023-07-20T11:19:23;4.43;;;1.65;;
64936;SDS011;51452;47.698;19.050;2023-07-20T11:21:54;2.58;;;1.77;;
64936;SDS011;51452;47.698;19.050;2023-07-20T11:24:20;6.28;;;1.67;;
64936;SDS011;51452;47.698;19.050;2023-07-20T11:26:47;5.05;;;1.80;;
64936;SDS011;51452;47.698;19.050;2023-07-20T11:29:15;5.10;;;2.03;;
64936;SDS011;51452;47.698;19.050;2023-07-20T11:31:42;5.28;;;2.25;;
64936;SDS011;51452;47.698;19.050;2023-07-20T11:34:12;2.67;;;1.67;;
64936;SDS011;51452;47.698;19.050;2023-07-20T11:36:45;5.70;;;1.75;;
64936;SDS011;51452;47.698;19.050;2023-07-20T11:39:16;2.90;;;1.63;;
64936;SDS011;51452;47.698;19.050;2023-07-20T11:41:49;3.58;;;1.60;;
64936;SDS011;51452;47.698;19.050;2023-07-20T11:44:22;3.65;;;1.70;;
64936;SDS011;51452;47.698;19.050;2023-07-20T11:47:01;2.60;;;1.60;;
64936;SDS011;51452;47.698;19.050;2023-07-20T11:49:29;4.47;;;1.70;;
64936;SDS011;51452;47.698;19.050;2023-07-20T11:51:56;4.55;;;1.60;;
64936;SDS011;51452;47.698;19.050;2023-07-20T11:54:22;7.65;;;1.70;;
64936;SDS011;51452;47.698;19.050;2023-07-20T11:56:52;2.75;;;1.60;;
64936;SDS011;51452;47.698;19.050;2023-07-20T11:59:18;2.20;;;1.30;;
64936;SDS011;51452;47.698;19.050;2023-07-20T12:01:44;5.50;;;1.48;;
64936;SDS011;51452;47.698;19.050;2023-07-20T12:04:09;4.45;;;1.70;;
64936;SDS011;51452;47.698;19.050;2023-07-20T12:06:35;8.45;;;1.70;;
64936;SDS011;51452;47.698;19.050;2023-07-20T12:09:00;4.07;;;1.60;;
64936;SDS011;51452;47.698;19.050;2023-07-20T12:11:33;3.45;;;1.95;;
64936;SDS011;51452;47.698;19.050;2023-07-20T12:13:59;3.70;;;1.70;;
64936;SDS011;51452;47.698;19.050;2023-07-20T12:16:28;6.82;;;1.90;;
64936;SDS011;51452;47.698;19.050;2023-07-20T12:19:00;2.10;;;1.40;;
64936;SDS011;51452;47.698;19.050;2023-07-20T12:21:33;3.13;;;1.52;;
64936;SDS011;51452;47.698;19.050;2023-07-20T12:24:02;7.20;;;1.90;;
64936;SDS011;51452;47.698;19.050;2023-07-20T12:26:31;5.30;;;2.10;;
64936;SDS011;51452;47.698;19.050;2023-07-20T12:28:58;6.95;;;1.55;;
64936;SDS011;51452;47.698;19.050;2023-07-20T12:31:25;4.18;;;1.58;;
64936;SDS011;51452;47.698;19.050;2023-07-20T12:33:51;2.72;;;1.55;;
64936;SDS011;51452;47.698;19.050;2023-07-20T12:36:18;5.32;;;1.60;;
64936;SDS011;51452;47.698;19.050;2023-07-20T12:38:43;10.50;;;2.10;;
64936;SDS011;51452;47.698;19.050;2023-07-20T12:41:10;3.45;;;1.85;;
64936;SDS011;51452;47.698;19.050;2023-07-20T12:43:40;4.55;;;1.70;;
64936;SDS011;51452;47.698;19.050;2023-07-20T12:46:06;2.45;;;1.60;;
64936;SDS011;51452;47.698;19.050;2023-07-20T12:48:32;5.03;;;1.60;;
64936;SDS011;51452;47.698;19.050;2023-07-20T12:50:58;6.97;;;1.67;;
64936;SDS011;51452;47.698;19.050;2023-07-20T12:53:23;2.85;;;1.60;;
64936;SDS011;51452;47.698;19.050;2023-07-20T12:56:07;3.80;;;1.50;;
64936;SDS011;51452;47.698;19.050;2023-07-20T12:58:32;5.78;;;1.75;;
64936;SDS011;51452;47.698;19.050;2023-07-20T13:00:58;7.38;;;1.70;;
64936;SDS011;51452;47.698;19.050;2023-07-20T13:03:23;3.85;;;1.60;;
64936;SDS011;51452;47.698;19.050;2023-07-20T13:05:49;9.43;;;1.70;;
64936;SDS011;51452;47.698;19.050;2023-07-20T13:08:15;7.20;;;1.70;;
64936;SDS011;51452;47.698;19.050;2023-07-20T13:10:41;4.90;;;1.73;;
64936;SDS011;51452;47.698;19.050;2023-07-20T13:13:06;3.15;;;1.52;;
64936;SDS011;51452;47.698;19.050;2023-07-20T13:15:32;3.67;;;1.50;;
64936;SDS011;51452;47.698;19.050;2023-07-20T13:18:05;3.17;;;1.40;;
64936;SDS011;51452;47.698;19.050;2023-07-20T13:20:30;3.50;;;1.30;;
64936;SDS011;51452;47.698;19.050;2023-07-20T13:22:56;3.72;;;1.45;;
64936;SDS011;51452;47.698;19.050;2023-07-20T13:25:21;3.67;;;1.70;;
64936;SDS011;51452;47.698;19.050;2023-07-20T13:27:47;8.63;;;1.63;;
64936;SDS011;51452;47.698;19.050;2023-07-20T13:30:12;11.13;;;6.25;;
64936;SDS011;51452;47.698;19.050;2023-07-20T13:32:42;6.22;;;2.10;;
64936;SDS011;51452;47.698;19.050;2023-07-20T13:35:08;3.65;;;1.52;;
64936;SDS011;51452;47.698;19.050;2023-07-20T13:37:34;3.97;;;1.40;;
64936;SDS011;51452;47.698;19.050;2023-07-20T13:39:59;2.28;;;1.45;;
64936;SDS011;51452;47.698;19.050;2023-07-20T13:42:25;2.00;;;1.42;;
64936;SDS011;51452;47.698;19.050;2023-07-20T13:44:51;4.53;;;1.58;;
64936;SDS011;51452;47.698;19.050;2023-07-20T13:47:16;8.63;;;1.63;;
64936;SDS011;51452;47.698;19.050;2023-07-20T13:49:42;2.15;;;1.30;;
64936;SDS011;51452;47.698;19.050;2023-07-20T13:52:08;5.93;;;1.50;;
64936;SDS011;51452;47.698;19.050;2023-07-20T13:54:34;2.00;;;1.33;;
64936;SDS011;51452;47.698;19.050;2023-07-20T13:56:59;3.72;;;1.33;;
64936;SDS011;51452;47.698;19.050;2023-07-20T13:59:25;3.08;;;1.30;;
64936;SDS011;51452;47.698;19.050;2023-07-20T14:01:50;4.18;;;1.60;;
64936;SDS011;51452;47.698;19.050;2023-07-20T14:04:15;2.42;;;1.30;;
64936;SDS011;51452;47.698;19.050;2023-07-20T14:06:41;3.05;;;1.50;;
64936;SDS011;51452;47.698;19.050;2023-07-20T14:09:07;2.85;;;1.60;;
64936;SDS011;51452;47.698;19.050;2023-07-20T14:11:33;7.00;;;1.45;;
64936;SDS011;51452;47.698;19.050;2023-07-20T14:13:58;2.72;;;1.50;;
64936;SDS011;51452;47.698;19.050;2023-07-20T14:16:24;3.15;;;1.48;;
64936;SDS011;51452;47.698;19.050;2023-07-20T14:18:49;3.78;;;1.30;;
64936;SDS011;51452;47.698;19.050;2023-07-20T14:21:19;2.42;;;1.40;;
64936;SDS011;51452;47.698;19.050;2023-07-20T14:23:46;3.95;;;1.33;;
64936;SDS011;51452;47.698;19.050;2023-07-20T14:26:12;3.42;;;1.35;;
64936;SDS011;51452;47.698;19.050;2023-07-20T14:28:37;4.10;;;1.48;;
64936;SDS011;51452;47.698;19.050;2023-07-20T14:31:03;2.75;;;1.42;;
64936;SDS011;51452;47.698;19.050;2023-07-20T14:33:28;2.38;;;1.63;;
64936;SDS011;51452;47.698;19.050;2023-07-20T14:35:54;2.45;;;1.30;;
64936;SDS011;51452;47.698;19.050;2023-07-20T14:38:19;2.63;;;1.30;;
64936;SDS011;51452;47.698;19.050;2023-07-20T14:40:45;2.90;;;1.52;;
64936;SDS011;51452;47.698;19.050;2023-07-20T14:43:11;2.10;;;1.40;;
64936;SDS011;51452;47.698;19.050;2023-07-20T14:45:36;5.35;;;1.25;;
64936;SDS011;51452;47.698;19.050;2023-07-20T14:48:05;2.40;;;1.25;;
64936;SDS011;51452;47.698;19.050;2023-07-20T14:50:30;5.82;;;1.70;;
64936;SDS011;51452;47.698;19.050;2023-07-20T14:52:56;2.55;;;1.50;;